Time;durP1;ratioP1;P1;durP2;ratioP2;P2;SDS_P1;SDS_P2;PMS_P1;PMS_P2;Temp;Humidity;BMP_temperature;BMP_pressure;BME280_temperature;BME280_humidity;BME280_pressure;Samples;Min_cycle;Max_cycle;Signal;HPM_P1;HPM_P2
2023/09/20 00:00:55;;;;;;;3.53;1.25;;;22.70;96.40;;;;;;5081498;28;45261;-63
2023/09/20 00:03:25;;;;;;;2.67;1.02;;;22.70;96.20;;;;;;5083903;27;45294;-62
2023/09/20 00:05:54;;;;;;;1.17;0.80;;;22.70;96.00;;;;;;5079770;28;45335;-62
2023/09/20 00:08:21;;;;;;;3.05;0.80;;;22.70;96.30;;;;;;5077968;28;45375;-62
2023/09/20 00:10:48;;;;;;;1.77;0.70;;;22.70;96.00;;;;;;5081481;28;45198;-63
2023/09/20 00:13:14;;;;;;;1.33;0.90;;;22.70;96.60;;;;;;5075000;28;45071;-62
2023/09/20 00:15:42;;;;;;;2.38;1.00;;;22.70;96.50;;;;;;5076430;28;45110;-62
2023/09/20 00:18:09;;;;;;;1.60;0.90;;;22.70;96.60;;;;;;5074993;28;45331;-62
2023/09/20 00:20:39;;;;;;;1.20;0.80;;;22.70;96.70;;;;;;5076176;28;45079;-63
2023/09/20 00:23:09;;;;;;;2.60;0.80;;;22.70;96.70;;;;;;5080968;28;45300;-62
2023/09/20 00:25:35;;;;;;;1.50;0.70;;;22.70;96.40;;;;;;5075505;28;44739;-63
2023/09/20 00:28:03;;;;;;;2.08;1.20;;;22.70;96.70;;;;;;5074408;28;47028;-63
2023/09/20 00:30:29;;;;;;;3.15;0.80;;;22.70;96.80;;;;;;5082256;28;45133;-63
2023/09/20 00:32:56;;;;;;;2.50;0.75;;;22.70;96.70;;;;;;5078585;28;45205;-63
2023/09/20 00:35:23;;;;;;;2.30;0.80;;;22.70;96.90;;;;;;5082457;28;45082;-62
2023/09/20 00:37:50;;;;;;;2.17;0.93;;;22.70;96.70;;;;;;5076175;28;46250;-62
2023/09/20 00:40:21;;;;;;;2.53;0.90;;;22.70;96.40;;;;;;5078652;27;45091;-62
2023/09/20 00:42:50;;;;;;;3.42;0.70;;;22.70;96.10;;;;;;5078949;27;45092;-62
2023/09/20 00:45:17;;;;;;;1.95;0.70;;;22.70;95.80;;;;;;5082005;27;45323;-62
2023/09/20 00:47:46;;;;;;;1.27;0.68;;;22.70;95.70;;;;;;5078837;28;46244;-62
2023/09/20 00:50:14;;;;;;;4.93;1.33;;;22.70;95.60;;;;;;5083965;28;45093;-62
2023/09/20 00:52:42;;;;;;;1.58;0.80;;;22.70;95.90;;;;;;5083416;28;45098;-62
2023/09/20 00:55:12;;;;;;;1.98;0.90;;;22.70;95.80;;;;;;5080052;28;44688;-62
2023/09/20 00:57:40;;;;;;;1.67;0.82;;;22.70;95.60;;;;;;5082410;28;46397;-62
2023/09/20 01:00:19;;;;;;;2.17;0.95;;;22.70;95.40;;;;;;5083350;27;45220;-62
2023/09/20 01:02:47;;;;;;;2.67;0.90;;;22.70;95.10;;;;;;5083229;27;44625;-62
2023/09/20 01:05:15;;;;;;;2.30;1.00;;;22.70;95.00;;;;;;5084572;28;45184;-62
2023/09/20 01:07:42;;;;;;;2.15;0.90;;;22.60;95.00;;;;;;5082917;27;48333;-62
2023/09/20 01:10:09;;;;;;;2.78;0.90;;;22.60;95.00;;;;;;5078562;28;45308;-62
2023/09/20 01:12:36;;;;;;;2.38;1.00;;;22.60;94.90;;;;;;5083888;27;45079;-62
2023/09/20 01:15:07;;;;;;;1.85;1.02;;;22.60;94.80;;;;;;5085985;28;45305;-62
2023/09/20 01:17:44;;;;;;;4.13;1.02;;;22.60;94.70;;;;;;5083192;28;46291;-63
2023/09/20 01:20:19;;;;;;;3.30;0.98;;;22.70;94.50;;;;;;5084333;27;46141;-62
2023/09/20 01:22:50;;;;;;;4.03;1.13;;;22.60;94.60;;;;;;5080581;28;45185;-62
2023/09/20 01:25:23;;;;;;;3.00;1.13;;;22.60;94.60;;;;;;5077021;27;45419;-62
2023/09/20 01:27:50;;;;;;;3.70;1.00;;;22.60;94.50;;;;;;5078821;28;45414;-63
2023/09/20 01:30:17;;;;;;;2.45;0.90;;;22.60;94.50;;;;;;5075471;28;45135;-62
2023/09/20 01:32:45;;;;;;;2.55;0.70;;;22.60;94.60;;;;;;5080152;28;45236;-62
2023/09/20 01:35:16;;;;;;;2.10;0.90;;;22.60;94.60;;;;;;5075978;28;45193;-62
2023/09/20 01:37:44;;;;;;;3.47;1.17;;;22.60;94.50;;;;;;5072780;28;45258;-62
2023/09/20 01:40:15;;;;;;;2.45;1.10;;;22.60;94.60;;;;;;5080831;27;45177;-62
2023/09/20 01:42:43;;;;;;;2.08;0.82;;;22.60;94.50;;;;;;5082891;28;45192;-62
2023/09/20 01:45:16;;;;;;;3.00;1.13;;;22.60;94.40;;;;;;5078292;28;45431;-62
2023/09/20 01:47:47;;;;;;;2.60;1.00;;;22.60;94.30;;;;;;5084110;28;45378;-62
2023/09/20 01:50:19;;;;;;;2.10;0.85;;;22.60;94.30;;;;;;5084338;28;45082;-62
2023/09/20 01:52:47;;;;;;;3.50;1.02;;;22.60;94.30;;;;;;5079199;28;45277;-62
2023/09/20 01:55:17;;;;;;;4.53;1.25;;;22.60;94.30;;;;;;5083861;28;45177;-62
2023/09/20 01:57:45;;;;;;;3.13;1.15;;;22.60;94.40;;;;;;5080485;28;45188;-62
2023/09/20 02:00:16;;;;;;;2.10;0.98;;;22.60;94.60;;;;;;5085640;28;45200;-62
2023/09/20 02:02:44;;;;;;;3.67;1.45;;;22.60;94.50;;;;;;5085527;28;45251;-62
2023/09/20 02:05:14;;;;;;;1.98;0.82;;;22.60;94.40;;;;;;5083723;28;45228;-62
2023/09/20 02:07:41;;;;;;;1.45;0.90;;;22.60;94.30;;;;;;5085060;28;47014;-63
2023/09/20 02:10:08;;;;;;;3.60;0.82;;;22.60;94.40;;;;;;5079072;28;45156;-62
2023/09/20 02:12:36;;;;;;;1.77;0.80;;;22.60;94.20;;;;;;5077617;28;45350;-62
2023/09/20 02:15:07;;;;;;;4.47;0.98;;;22.60;94.20;;;;;;5083921;27;45127;-62
2023/09/20 02:17:35;;;;;;;3.10;1.00;;;22.60;94.00;;;;;;5081730;28;45167;-62
2023/09/20 02:20:08;;;;;;;2.00;0.95;;;22.60;94.00;;;;;;5083996;28;44983;-62
2023/09/20 02:22:35;;;;;;;4.60;1.27;;;22.60;94.00;;;;;;5083871;28;45136;-62
2023/09/20 02:25:03;;;;;;;2.33;1.10;;;22.60;94.00;;;;;;5081317;28;45178;-62
2023/09/20 02:27:32;;;;;;;1.83;1.00;;;22.60;93.80;;;;;;5074571;27;47626;-62
2023/09/20 02:30:00;;;;;;;2.38;0.88;;;22.60;93.70;;;;;;5071291;28;45324;-62
2023/09/20 02:32:27;;;;;;;2.42;0.80;;;22.50;93.70;;;;;;5074822;28;45139;-62
2023/09/20 02:34:54;;;;;;;3.72;1.00;;;22.50;93.60;;;;;;5075764;28;45123;-62
2023/09/20 02:37:22;;;;;;;4.50;0.90;;;22.60;93.70;;;;;;5081502;27;45465;-62
2023/09/20 02:39:49;;;;;;;2.00;0.93;;;22.50;93.60;;;;;;5079692;28;45248;-62
2023/09/20 02:42:17;;;;;;;2.35;1.00;;;22.60;93.50;;;;;;5082356;28;45226;-62
2023/09/20 02:44:45;;;;;;;5.55;0.93;;;22.50;93.80;;;;;;5084526;28;45135;-62
2023/09/20 02:47:13;;;;;;;3.22;1.20;;;22.50;93.40;;;;;;5080133;27;48168;-62
2023/09/20 02:49:40;;;;;;;1.80;1.00;;;22.50;93.40;;;;;;5083476;27;44701;-62
2023/09/20 02:52:07;;;;;;;3.42;1.08;;;22.50;93.40;;;;;;5079140;28;45138;-63
2023/09/20 02:54:34;;;;;;;2.85;1.10;;;22.50;93.30;;;;;;5082223;28;45133;-62
2023/09/20 02:57:01;;;;;;;2.97;1.20;;;22.60;93.40;;;;;;5083518;28;45174;-62
2023/09/20 02:59:28;;;;;;;3.95;1.02;;;22.50;93.30;;;;;;5085184;28;45184;-62
2023/09/20 03:01:54;;;;;;;3.30;1.40;;;22.60;93.30;;;;;;5075057;28;45206;-62
2023/09/20 03:04:22;;;;;;;3.90;1.30;;;22.50;93.40;;;;;;5075746;28;46581;-62
2023/09/20 03:06:49;;;;;;;3.13;1.08;;;22.50;93.30;;;;;;5082352;28;47360;-62
2023/09/20 03:09:17;;;;;;;1.75;0.90;;;22.50;93.30;;;;;;5082367;28;45299;-62
2023/09/20 03:11:44;;;;;;;1.92;1.00;;;22.50;93.30;;;;;;5081897;27;45184;-62
2023/09/20 03:14:13;;;;;;;2.05;0.95;;;22.60;93.30;;;;;;5085338;28;45320;-62
2023/09/20 03:16:43;;;;;;;2.03;1.10;;;22.50;93.30;;;;;;5081880;27;48182;-62
2023/09/20 03:19:10;;;;;;;1.88;1.00;;;22.50;93.30;;;;;;5082492;28;44657;-62
2023/09/20 03:21:41;;;;;;;2.28;0.85;;;22.50;93.20;;;;;;5083036;28;45192;-62
2023/09/20 03:24:08;;;;;;;3.47;1.10;;;22.50;93.30;;;;;;5080932;27;45340;-62
2023/09/20 03:26:36;;;;;;;2.58;0.98;;;22.50;93.30;;;;;;5081810;27;45414;-62
2023/09/20 03:29:03;;;;;;;2.28;1.15;;;22.50;93.20;;;;;;5078310;28;45314;-62
2023/09/20 03:31:31;;;;;;;2.67;1.20;;;22.50;93.30;;;;;;5082341;27;45238;-62
2023/09/20 03:33:59;;;;;;;4.50;1.15;;;22.50;93.30;;;;;;5070426;28;45347;-62
2023/09/20 03:36:26;;;;;;;5.50;1.65;;;22.50;93.20;;;;;;5080580;27;46221;-62
2023/09/20 03:38:57;;;;;;;4.72;1.10;;;22.50;93.20;;;;;;5071777;28;45104;-62
2023/09/20 03:41:24;;;;;;;2.75;1.10;;;22.50;93.20;;;;;;5075727;28;45255;-62
2023/09/20 03:43:51;;;;;;;4.82;1.10;;;22.50;93.20;;;;;;5074390;28;45192;-62
2023/09/20 03:46:18;;;;;;;4.18;1.45;;;22.50;93.20;;;;;;5072068;28;47970;-62
2023/09/20 03:48:45;;;;;;;4.55;1.60;;;22.50;93.10;;;;;;5076232;28;45656;-62
2023/09/20 03:51:15;;;;;;;4.25;1.50;;;22.50;93.10;;;;;;5077604;28;44671;-62
2023/09/20 03:53:42;;;;;;;5.10;1.73;;;22.50;93.10;;;;;;5076789;28;45092;-62
2023/09/20 03:56:11;;;;;;;2.60;1.27;;;22.50;93.10;;;;;;5080365;28;47159;-62
2023/09/20 03:58:38;;;;;;;2.63;1.30;;;22.50;93.10;;;;;;5081663;27;44712;-62
2023/09/20 04:01:05;;;;;;;3.72;1.30;;;22.50;93.20;;;;;;5078216;28;44699;-62
2023/09/20 04:03:34;;;;;;;3.33;1.23;;;22.50;93.10;;;;;;5078241;28;45129;-62
2023/09/20 04:06:01;;;;;;;4.18;1.40;;;22.50;93.50;;;;;;5080703;28;48150;-62
2023/09/20 04:08:28;;;;;;;3.78;1.30;;;22.50;93.10;;;;;;5076537;28;45175;-62
2023/09/20 04:10:56;;;;;;;7.82;1.63;;;22.50;93.10;;;;;;5070839;28;45103;-62
2023/09/20 04:13:24;;;;;;;2.72;1.00;;;22.50;93.10;;;;;;5066165;27;45158;-62
2023/09/20 04:15:51;;;;;;;3.35;1.27;;;22.50;93.00;;;;;;5072557;28;45443;-62
2023/09/20 04:18:18;;;;;;;2.80;1.30;;;22.50;93.10;;;;;;5081140;28;45205;-60
2023/09/20 04:20:46;;;;;;;2.13;1.17;;;22.50;93.10;;;;;;5082876;28;45331;-61
2023/09/20 04:23:13;;;;;;;5.13;1.33;;;22.50;93.10;;;;;;5077027;28;45225;-60
2023/09/20 04:25:40;;;;;;;6.80;1.35;;;22.50;93.20;;;;;;5079727;28;47027;-61
2023/09/20 04:28:08;;;;;;;3.00;1.00;;;22.50;93.20;;;;;;5067703;28;44703;-61
2023/09/20 04:30:38;;;;;;;5.97;1.35;;;22.50;93.20;;;;;;5081031;28;45122;-60
2023/09/20 04:33:06;;;;;;;1.73;1.08;;;22.50;93.20;;;;;;5083884;27;44831;-61
2023/09/20 04:35:34;;;;;;;3.03;1.27;;;22.50;93.20;;;;;;5076592;27;47330;-60
2023/09/20 04:38:01;;;;;;;2.10;1.25;;;22.50;93.30;;;;;;5076549;27;45415;-59
2023/09/20 04:40:28;;;;;;;3.50;1.20;;;22.50;93.20;;;;;;5076882;28;45161;-59
2023/09/20 04:42:55;;;;;;;2.45;1.05;;;22.50;93.30;;;;;;5079273;28;45080;-61
2023/09/20 04:45:22;;;;;;;4.28;1.05;;;22.50;93.30;;;;;;5081554;28;47270;-65
2023/09/20 04:47:50;;;;;;;2.60;1.15;;;22.50;93.20;;;;;;5083990;27;45261;-64
2023/09/20 04:50:17;;;;;;;5.53;1.20;;;22.50;93.20;;;;;;5082212;28;45190;-65
2023/09/20 04:52:45;;;;;;;2.65;0.93;;;22.50;93.00;;;;;;5085940;28;45277;-64
2023/09/20 04:55:12;;;;;;;3.97;1.10;;;22.50;92.60;;;;;;5083121;28;47503;-65
2023/09/20 04:57:38;;;;;;;2.20;1.10;;;22.50;92.10;;;;;;5084035;28;45361;-66
2023/09/20 05:00:15;;;;;;;2.67;1.08;;;22.50;91.60;;;;;;5086889;28;45117;-65
2023/09/20 05:02:44;;;;;;;2.78;1.27;;;22.50;91.30;;;;;;5080842;28;45315;-60
2023/09/20 05:05:12;;;;;;;2.72;1.00;;;22.40;90.70;;;;;;5085266;28;48469;-60
2023/09/20 05:07:40;;;;;;;2.40;1.20;;;22.40;90.60;;;;;;5086942;28;45238;-61
2023/09/20 05:10:08;;;;;;;3.15;1.13;;;22.40;90.40;;;;;;5085567;28;45103;-64
2023/09/20 05:12:34;;;;;;;3.38;1.08;;;22.40;90.40;;;;;;5082560;28;45051;-64
2023/09/20 05:15:01;;;;;;;3.42;1.30;;;22.40;90.20;;;;;;5083051;28;46250;-64
2023/09/20 05:17:28;;;;;;;2.35;0.90;;;22.40;90.10;;;;;;5086581;28;45044;-63
2023/09/20 05:19:55;;;;;;;4.05;1.02;;;22.40;90.10;;;;;;5085418;28;45189;-60
2023/09/20 05:22:24;;;;;;;1.23;0.80;;;22.40;90.20;;;;;;5085455;28;45086;-60
2023/09/20 05:24:51;;;;;;;1.88;1.10;;;22.50;90.70;;;;;;5082022;28;47097;-60
2023/09/20 05:27:18;;;;;;;3.05;0.93;;;22.50;91.20;;;;;;5078340;28;45051;-60
2023/09/20 05:29:45;;;;;;;3.60;1.08;;;22.50;91.40;;;;;;5086460;28;45173;-60
2023/09/20 05:32:12;;;;;;;2.90;1.20;;;22.50;91.90;;;;;;5081543;27;45185;-59
2023/09/20 05:34:40;;;;;;;3.78;1.30;;;22.50;92.10;;;;;;5084572;28;47489;-61
2023/09/20 05:37:06;;;;;;;2.08;1.08;;;22.50;92.30;;;;;;5085507;28;45310;-59
2023/09/20 05:39:35;;;;;;;2.75;1.10;;;22.50;92.40;;;;;;5083724;28;45278;-62
2023/09/20 05:42:05;;;;;;;2.50;1.05;;;22.50;92.80;;;;;;5082780;28;45133;-64
2023/09/20 05:44:32;;;;;;;3.70;1.23;;;22.60;92.90;;;;;;5082052;28;45121;-65
2023/09/20 05:46:59;;;;;;;6.15;1.67;;;22.50;92.90;;;;;;5083799;27;44695;-60
2023/09/20 05:49:26;;;;;;;5.10;1.30;;;22.10;93.60;;;;;;5075826;27;45207;-60
2023/09/20 05:51:53;;;;;;;5.07;1.38;;;21.90;94.80;;;;;;5081337;28;45126;-60
2023/09/20 05:54:21;;;;;;;4.00;1.50;;;21.80;94.20;;;;;;5081059;28;45189;-60
2023/09/20 05:56:51;;;;;;;8.90;1.75;;;21.80;93.70;;;;;;5075616;28;45629;-60
2023/09/20 05:59:17;;;;;;;5.03;1.73;;;20.90;95.90;;;;;;5076458;28;45284;-60
2023/09/20 06:01:45;;;;;;;7.05;1.45;;;21.00;95.90;;;;;;5075213;28;44754;-60
2023/09/20 06:04:11;;;;;;;6.20;1.73;;;21.10;96.10;;;;;;5078944;28;47469;-60
2023/09/20 06:06:38;;;;;;;3.25;1.40;;;21.40;95.50;;;;;;5078420;28;45142;-61
2023/09/20 06:09:05;;;;;;;3.70;1.67;;;21.70;95.00;;;;;;5077852;27;44603;-60
2023/09/20 06:11:32;;;;;;;3.90;1.58;;;21.80;94.70;;;;;;5077574;28;45084;-60
2023/09/20 06:14:01;;;;;;;6.35;1.60;;;21.90;94.20;;;;;;5082039;27;46999;-60
2023/09/20 06:16:28;;;;;;;7.88;1.98;;;21.70;94.70;;;;;;5073576;28;45349;-61
2023/09/20 06:18:55;;;;;;;6.53;1.67;;;21.80;94.70;;;;;;5082543;28;45258;-61
2023/09/20 06:21:23;;;;;;;4.93;2.00;;;21.80;94.70;;;;;;5070799;28;45067;-61
2023/09/20 06:23:50;;;;;;;4.28;1.50;;;21.90;94.60;;;;;;5081943;28;46352;-61
2023/09/20 06:26:18;;;;;;;6.18;1.55;;;21.80;93.50;;;;;;5071212;28;44704;-61
2023/09/20 06:28:45;;;;;;;8.70;1.65;;;21.60;94.70;;;;;;5081832;28;45090;-61
2023/09/20 06:31:14;;;;;;;5.57;1.58;;;21.50;95.00;;;;;;5085459;28;45114;-61
2023/09/20 06:33:41;;;;;;;5.00;1.58;;;21.40;96.60;;;;;;5080796;28;45398;-61
2023/09/20 06:36:08;;;;;;;2.65;1.17;;;21.40;98.30;;;;;;5078750;28;45149;-61
2023/09/20 06:38:35;;;;;;;3.33;1.23;;;21.30;98.30;;;;;;5079769;28;45353;-61
2023/09/20 06:41:04;;;;;;;4.28;1.50;;;21.30;98.60;;;;;;5077358;28;45336;-61
2023/09/20 06:43:31;;;;;;;4.05;1.50;;;21.20;98.80;;;;;;5077478;28;46055;-61
2023/09/20 06:45:59;;;;;;;5.15;1.30;;;21.20;99.70;;;;;;5082782;28;45215;-61
2023/09/20 06:48:27;;;;;;;3.47;1.50;;;21.00;99.90;;;;;;5074817;27;44685;-61
2023/09/20 06:50:54;;;;;;;3.22;1.20;;;21.10;99.90;;;;;;5074158;28;44662;-61
2023/09/20 06:53:23;;;;;;;3.95;1.40;;;21.10;99.50;;;;;;5083161;28;46220;-61
2023/09/20 06:55:50;;;;;;;3.25;1.20;;;21.10;98.00;;;;;;5080620;28;45458;-61
2023/09/20 06:58:21;;;;;;;3.25;1.50;;;21.10;98.20;;;;;;5080462;28;44668;-61
2023/09/20 07:00:48;;;;;;;2.83;1.38;;;21.00;98.20;;;;;;5081348;27;45169;-61
2023/09/20 07:03:15;;;;;;;2.47;1.40;;;20.80;97.40;;;;;;5075203;28;46677;-62
2023/09/20 07:05:44;;;;;;;4.10;1.00;;;20.90;99.90;;;;;;5073318;28;45114;-61
2023/09/20 07:08:11;;;;;;;5.68;1.65;;;21.00;99.90;;;;;;5080109;28;45269;-61
2023/09/20 07:10:41;;;;;;;4.10;1.27;;;21.00;98.20;;;;;;5067099;27;45357;-61
2023/09/20 07:13:09;;;;;;;2.67;1.27;;;21.00;99.70;;;;;;5075966;28;46244;-61
2023/09/20 07:15:37;;;;;;;3.90;1.17;;;21.10;99.90;;;;;;5082396;28;46236;-61
2023/09/20 07:18:11;;;;;;;2.15;1.17;;;21.00;98.70;;;;;;5067384;28;45099;-61
2023/09/20 07:20:39;;;;;;;2.55;1.13;;;21.00;99.40;;;;;;5074501;28;45212;-61
2023/09/20 07:23:08;;;;;;;2.17;1.25;;;21.00;99.30;;;;;;5083647;28;45208;-61
2023/09/20 07:25:36;;;;;;;2.60;1.08;;;21.10;99.90;;;;;;5077807;28;45051;-61
2023/09/20 07:28:06;;;;;;;5.10;1.48;;;21.20;99.90;;;;;;5068496;28;45225;-62
2023/09/20 07:30:39;;;;;;;4.28;1.13;;;21.20;99.90;;;;;;5082290;27;45477;-61
2023/09/20 07:33:11;;;;;;;5.40;1.42;;;21.20;99.20;;;;;;5083381;28;46418;-61
2023/09/20 07:35:38;;;;;;;4.10;1.55;;;21.10;99.60;;;;;;5078815;28;45228;-62
2023/09/20 07:38:12;;;;;;;5.18;1.52;;;21.10;99.20;;;;;;5075304;28;45213;-60
2023/09/20 07:40:41;;;;;;;3.30;1.48;;;21.10;98.70;;;;;;5072732;27;45494;-61
2023/09/20 07:43:10;;;;;;;3.63;1.00;;;21.00;99.20;;;;;;5077935;28;47024;-60
2023/09/20 07:45:38;;;;;;;4.05;1.45;;;20.90;99.90;;;;;;5083970;28;44860;-60
2023/09/20 07:48:11;;;;;;;2.55;1.30;;;21.00;99.90;;;;;;5084523;28;45435;-59
2023/09/20 07:50:41;;;;;;;5.40;1.48;;;21.10;99.90;;;;;;5081889;28;45204;-60
2023/09/20 07:53:10;;;;;;;4.15;1.70;;;21.00;99.90;;;;;;5075773;28;45429;-60
2023/09/20 07:55:45;;;;;;;4.45;1.55;;;21.00;98.30;;;;;;5079571;27;45133;-60
2023/09/20 07:58:13;;;;;;;2.88;1.55;;;21.00;99.60;;;;;;5076424;28;45109;-60
2023/09/20 08:00:42;;;;;;;3.42;1.27;;;20.90;99.90;;;;;;5080381;27;45129;-61
2023/09/20 08:03:10;;;;;;;4.80;1.40;;;20.80;99.90;;;;;;5078914;28;45188;-60
2023/09/20 08:05:38;;;;;;;3.70;1.50;;;20.90;99.90;;;;;;5078831;28;45707;-61
2023/09/20 08:08:07;;;;;;;2.25;1.30;;;20.60;99.90;;;;;;5068097;28;45048;-61
2023/09/20 08:10:35;;;;;;;3.25;1.20;;;20.80;99.90;;;;;;5077260;27;45056;-61
2023/09/20 08:13:03;;;;;;;5.88;1.40;;;21.00;99.90;;;;;;5077817;27;47237;-61
2023/09/20 08:15:32;;;;;;;4.60;1.30;;;20.90;99.60;;;;;;5083108;28;45236;-61
2023/09/20 08:20:44;;;;;;;3.85;1.27;;;21.00;99.90;;;;;;5082239;28;45254;-61
2023/09/20 09:01:46;;;;;;;5.95;1.77;;;21.00;99.70;;;;;;5082707;28;45269;-62
2023/09/20 09:04:17;;;;;;;6.22;1.60;;;20.90;99.70;;;;;;5082642;28;45334;-62
2023/09/20 09:06:44;;;;;;;2.97;1.17;;;20.80;99.90;;;;;;5073243;28;45443;-62
2023/09/20 09:09:11;;;;;;;3.05;1.38;;;20.90;99.90;;;;;;5084903;27;44644;-62
2023/09/20 09:11:38;;;;;;;2.92;1.23;;;20.90;99.90;;;;;;5075345;28;45090;-62
2023/09/20 09:14:05;;;;;;;5.53;1.50;;;20.90;99.90;;;;;;5069395;28;45118;-62
2023/09/20 09:16:34;;;;;;;5.28;1.45;;;20.90;99.90;;;;;;5080577;28;45373;-62
2023/09/20 09:19:02;;;;;;;2.92;1.15;;;20.90;99.90;;;;;;5073617;28;45841;-62
2023/09/20 09:21:30;;;;;;;4.20;1.27;;;20.90;99.90;;;;;;5080248;28;45139;-62
2023/09/20 09:23:57;;;;;;;6.28;1.38;;;20.90;99.90;;;;;;5083973;27;45031;-62
2023/09/20 09:26:25;;;;;;;1.85;1.13;;;21.00;99.90;;;;;;5072919;28;46234;-62
2023/09/20 09:28:52;;;;;;;4.95;1.40;;;21.10;99.90;;;;;;5086180;27;45295;-62
2023/09/20 09:31:19;;;;;;;3.50;1.20;;;21.10;99.90;;;;;;5085153;28;45165;-62
2023/09/20 09:33:46;;;;;;;3.25;1.10;;;21.00;99.90;;;;;;5067499;28;45079;-62
2023/09/20 09:36:14;;;;;;;4.47;1.17;;;21.10;99.90;;;;;;5078474;28;45202;-60
2023/09/20 09:38:41;;;;;;;2.30;1.05;;;21.10;99.90;;;;;;5083976;28;45135;-60
2023/09/20 09:41:10;;;;;;;1.65;0.82;;;21.20;99.90;;;;;;5081756;28;45217;-59
2023/09/20 09:43:38;;;;;;;3.63;0.88;;;21.30;99.90;;;;;;5078021;28;45078;-60
2023/09/20 09:46:08;;;;;;;5.40;1.15;;;21.30;99.90;;;;;;5079640;28;45180;-60
2023/09/20 09:48:37;;;;;;;1.67;1.02;;;21.30;99.90;;;;;;5082127;28;45300;-60
2023/09/20 09:51:06;;;;;;;3.08;1.00;;;21.20;99.90;;;;;;5074053;28;44682;-60
2023/09/20 09:53:39;;;;;;;2.35;1.10;;;21.20;99.90;;;;;;5077104;28;45129;-61
2023/09/20 09:56:07;;;;;;;5.22;1.15;;;21.30;99.90;;;;;;5078113;28;45274;-60
2023/09/20 09:58:34;;;;;;;4.28;1.30;;;21.30;99.90;;;;;;5084279;28;45180;-60
2023/09/20 10:01:06;;;;;;;2.50;1.63;;;21.30;99.90;;;;;;5084191;28;45131;-60
2023/09/20 10:03:35;;;;;;;1.48;0.88;;;21.40;99.90;;;;;;5075391;28;45217;-60
2023/09/20 10:06:09;;;;;;;3.35;1.00;;;21.40;99.90;;;;;;5076140;28;45225;-61
2023/09/20 10:08:40;;;;;;;2.53;1.10;;;21.30;99.90;;;;;;5081406;27;45741;-61
2023/09/20 10:11:08;;;;;;;2.38;1.00;;;21.30;98.90;;;;;;5078564;28;45231;-61
2023/09/20 10:13:36;;;;;;;4.35;0.80;;;21.30;99.50;;;;;;5086328;28;45064;-61
2023/09/20 10:16:06;;;;;;;2.55;0.68;;;21.30;99.90;;;;;;5068932;27;45167;-61
2023/09/20 10:18:33;;;;;;;1.52;0.73;;;21.20;98.70;;;;;;5083362;28;45947;-61
2023/09/20 10:21:10;;;;;;;7.63;0.73;;;21.20;99.40;;;;;;5084755;28;45193;-61
2023/09/20 10:23:42;;;;;;;2.83;0.75;;;21.20;99.90;;;;;;5077436;27;45310;-63
2023/09/20 10:26:14;;;;;;;2.65;1.00;;;21.30;99.90;;;;;;5080043;28;45504;-61
2023/09/20 10:28:42;;;;;;;2.80;0.63;;;21.20;99.70;;;;;;5074610;28;45877;-60
2023/09/20 10:31:15;;;;;;;3.25;0.60;;;21.20;99.00;;;;;;5082965;28;44956;-60
2023/09/20 10:33:46;;;;;;;2.72;0.98;;;21.30;98.40;;;;;;5084331;27;45169;-63
2023/09/20 10:36:18;;;;;;;1.92;0.82;;;21.30;98.00;;;;;;5070754;28;48128;-60
2023/09/20 10:38:47;;;;;;;5.75;0.88;;;21.30;98.40;;;;;;5080113;28;45152;-60
2023/09/20 10:41:16;;;;;;;2.53;0.80;;;21.30;98.80;;;;;;5079729;28;45089;-61
2023/09/20 10:43:47;;;;;;;2.13;0.70;;;21.30;97.50;;;;;;5068912;27;45204;-62
2023/09/20 10:46:17;;;;;;;1.17;0.70;;;21.30;99.30;;;;;;5074639;28;47356;-61
2023/09/20 10:48:49;;;;;;;1.45;0.60;;;21.40;99.90;;;;;;5072058;27;45265;-63
2023/09/20 10:51:41;;;;;;;4.05;0.80;;;21.30;99.90;;;;;;5080966;28;45071;-60
2023/09/20 10:54:23;;;;;;;1.48;0.65;;;21.30;98.90;;;;;;5078974;28;45035;-61
2023/09/20 10:57:11;;;;;;;3.85;0.90;;;21.30;99.80;;;;;;5083316;28;48239;-61
2023/09/20 10:59:41;;;;;;;3.72;0.70;;;21.30;99.90;;;;;;5084762;28;45134;-62
2023/09/20 11:02:09;;;;;;;1.88;0.70;;;21.40;99.80;;;;;;5076850;28;45438;-61
2023/09/20 11:04:40;;;;;;;6.03;1.00;;;21.40;98.00;;;;;;5074261;28;45137;-62
2023/09/20 11:07:08;;;;;;;2.58;0.95;;;21.40;97.10;;;;;;5067690;28;45224;-62
2023/09/20 11:09:38;;;;;;;1.83;0.70;;;21.40;99.90;;;;;;5077124;27;44689;-62
2023/09/20 11:12:09;;;;;;;4.45;0.85;;;21.40;99.90;;;;;;5083028;28;45146;-62
2023/09/20 11:14:37;;;;;;;2.00;0.77;;;21.40;99.60;;;;;;5074697;28;45308;-62
2023/09/20 11:17:05;;;;;;;1.17;0.70;;;21.30;98.00;;;;;;5081162;28;47184;-62
2023/09/20 11:19:33;;;;;;;4.82;0.80;;;21.40;99.10;;;;;;5083913;27;45051;-62
2023/09/20 11:22:01;;;;;;;3.05;1.10;;;21.50;97.70;;;;;;5078983;28;45421;-62
2023/09/20 11:24:28;;;;;;;3.35;0.77;;;21.50;98.30;;;;;;5079079;28;45240;-60
2023/09/20 11:26:57;;;;;;;4.50;0.85;;;21.50;99.40;;;;;;5082407;27;47367;-60
2023/09/20 11:29:25;;;;;;;3.35;1.00;;;21.40;97.70;;;;;;5079052;27;45136;-61
2023/09/20 11:31:57;;;;;;;2.63;0.70;;;21.50;98.90;;;;;;5080812;28;45421;-63
2023/09/20 11:34:25;;;;;;;2.35;0.90;;;21.40;97.50;;;;;;5070322;28;45140;-60
2023/09/20 11:36:54;;;;;;;1.20;0.65;;;21.50;97.60;;;;;;5068537;28;45104;-64
2023/09/20 11:39:31;;;;;;;1.40;0.60;;;21.60;98.80;;;;;;5072599;28;45091;-60
2023/09/20 11:42:04;;;;;;;2.40;0.85;;;22.00;98.20;;;;;;5074237;28;45260;-61
2023/09/20 11:44:35;;;;;;;1.55;0.60;;;22.30;97.80;;;;;;5075103;28;45082;-61
2023/09/20 11:47:03;;;;;;;1.90;0.60;;;22.30;97.00;;;;;;5079337;28;47175;-62
2023/09/20 11:49:30;;;;;;;1.48;0.80;;;22.40;97.10;;;;;;5075783;28;45169;-62
2023/09/20 11:51:58;;;;;;;1.20;0.70;;;22.40;96.10;;;;;;5077475;28;45141;-62
2023/09/20 11:54:30;;;;;;;1.38;0.80;;;22.40;96.70;;;;;;5080190;28;45176;-63
2023/09/20 11:57:03;;;;;;;3.03;0.93;;;22.50;96.60;;;;;;5070834;28;45312;-62
2023/09/20 11:59:30;;;;;;;2.80;0.88;;;22.50;96.40;;;;;;5071335;28;45164;-63
2023/09/20 12:01:57;;;;;;;1.88;0.90;;;22.60;94.80;;;;;;5074581;28;45373;-62
2023/09/20 12:04:24;;;;;;;3.38;1.05;;;22.60;95.60;;;;;;5076125;28;44720;-63
2023/09/20 12:06:53;;;;;;;2.10;0.90;;;22.60;95.10;;;;;;5071100;28;46189;-63
2023/09/20 12:09:21;;;;;;;2.63;1.02;;;22.60;95.00;;;;;;5079500;27;45122;-63
2023/09/20 12:11:48;;;;;;;4.60;1.08;;;22.60;94.00;;;;;;5074743;28;45425;-63
2023/09/20 12:14:17;;;;;;;1.98;0.90;;;22.50;94.30;;;;;;5075832;28;45239;-63
2023/09/20 12:16:47;;;;;;;2.70;0.70;;;22.60;95.00;;;;;;5072744;28;45299;-63
2023/09/20 12:19:16;;;;;;;1.58;1.02;;;22.60;94.70;;;;;;5076454;27;45221;-63
2023/09/20 12:21:44;;;;;;;3.67;1.23;;;22.60;94.50;;;;;;5075349;28;45094;-63
2023/09/20 12:24:11;;;;;;;3.25;0.93;;;22.60;94.00;;;;;;5078617;28;45213;-63
2023/09/20 12:26:38;;;;;;;4.65;0.88;;;22.60;93.90;;;;;;5076293;28;46637;-63
2023/09/20 12:29:06;;;;;;;2.53;0.90;;;22.60;94.30;;;;;;5078538;28;45237;-63
2023/09/20 12:31:34;;;;;;;4.00;0.77;;;22.60;93.20;;;;;;5079473;27;44667;-63
2023/09/20 12:34:01;;;;;;;2.97;1.00;;;22.60;93.50;;;;;;5070984;28;45207;-63
2023/09/20 12:36:29;;;;;;;3.50;1.08;;;22.60;93.50;;;;;;5076892;28;45178;-63
2023/09/20 12:38:56;;;;;;;3.10;1.10;;;22.60;93.80;;;;;;5078320;28;45261;-64
2023/09/20 12:41:24;;;;;;;4.03;0.95;;;22.60;93.70;;;;;;5069067;28;45101;-61
2023/09/20 12:43:51;;;;;;;1.52;0.80;;;22.60;93.40;;;;;;5079514;27;45161;-60
2023/09/20 12:46:18;;;;;;;2.17;0.82;;;22.60;93.50;;;;;;5075906;28;45264;-61
2023/09/20 12:48:48;;;;;;;1.95;1.08;;;22.60;92.00;;;;;;5073366;28;45149;-60
2023/09/20 12:51:15;;;;;;;3.10;1.10;;;22.60;93.70;;;;;;5079120;28;45237;-61
2023/09/20 12:53:42;;;;;;;2.03;0.90;;;22.60;93.00;;;;;;5080467;28;45400;-62
2023/09/20 12:56:12;;;;;;;1.42;0.77;;;22.60;93.40;;;;;;5078002;28;48030;-62
2023/09/20 12:58:41;;;;;;;2.53;1.20;;;22.60;93.30;;;;;;5084079;28;45068;-63
2023/09/20 13:01:09;;;;;;;1.88;1.00;;;22.70;93.30;;;;;;5079154;28;44787;-63
2023/09/20 13:03:37;;;;;;;2.00;0.80;;;22.60;93.30;;;;;;5079988;28;45089;-63
2023/09/20 13:06:07;;;;;;;7.47;1.25;;;22.60;93.20;;;;;;5086154;27;47174;-63
2023/09/20 13:08:34;;;;;;;1.52;0.90;;;22.60;92.20;;;;;;5088658;27;45122;-61
2023/09/20 13:11:00;;;;;;;3.15;1.10;;;22.60;93.00;;;;;;5080747;28;45137;-61
2023/09/20 13:13:27;;;;;;;2.47;0.82;;;22.50;92.90;;;;;;5084941;27;45269;-60
2023/09/20 13:15:54;;;;;;;1.85;1.00;;;22.50;92.40;;;;;;5084953;28;46302;-60
2023/09/20 13:18:21;;;;;;;3.65;1.05;;;22.50;92.90;;;;;;5080718;28;45162;-60
2023/09/20 13:20:47;;;;;;;2.10;0.90;;;22.60;93.50;;;;;;5081801;28;45134;-60
2023/09/20 13:23:16;;;;;;;1.45;0.77;;;22.60;93.50;;;;;;5080103;28;45250;-61
2023/09/20 13:25:42;;;;;;;5.43;1.38;;;22.60;93.30;;;;;;5072827;28;46518;-61
2023/09/20 13:28:10;;;;;;;1.63;0.93;;;22.60;92.10;;;;;;5080523;28;45664;-61
2023/09/20 13:30:40;;;;;;;2.25;1.10;;;22.50;93.30;;;;;;5080093;28;45245;-61
2023/09/20 13:33:09;;;;;;;2.90;1.13;;;22.60;92.90;;;;;;5078137;27;45446;-62
2023/09/20 13:35:36;;;;;;;7.28;1.27;;;22.60;93.30;;;;;;5078301;28;46360;-62